Terminal Aerodrome Forecast
Issued by NWS

Home | Current Version | Previous Version | Text Only | Print | Product List | Glossary On
Versions: 1 2 3 4 5 6 7 8 9 10 11 12 13 14 15 16
000
FTUS45 KBYZ 201128
TAFLVM
TAF
KLVM 201128Z 2012/2112 23017G26KT P6SM BKN200
     FM201600 23026G43KT P6SM SCT080 BKN100
     FM202100 27029G37KT P6SM VCTS SCT035CB BKN050
     FM210300 27025G34KT P6SM SCT080
     FM210600 24020G30KT P6SM FEW080=

USA.gov is the U.S. government's official web portal to all federal, state and local government web resources and services.